createdAt,value
2017-04-02T00:00:26.934Z,0
2017-04-02T00:01:26.658Z,0
2017-04-02T00:02:26.975Z,0
2017-04-02T00:03:26.577Z,0
2017-04-02T00:04:26.630Z,0
2017-04-02T00:05:26.859Z,0
2017-04-02T00:06:26.958Z,0
2017-04-02T00:07:26.833Z,0
2017-04-02T00:08:26.885Z,0
2017-04-02T00:09:26.807Z,0
2017-04-02T00:10:27.028Z,0
2017-04-02T00:11:27.027Z,0
2017-04-02T00:12:26.944Z,0
2017-04-02T00:13:26.773Z,0
2017-04-02T00:14:26.776Z,0
2017-04-02T00:15:26.867Z,0
2017-04-02T00:16:26.760Z,0
2017-04-02T00:17:26.723Z,0
2017-04-02T00:18:26.398Z,0
2017-04-02T00:19:26.376Z,0
2017-04-02T00:20:26.698Z,0
2017-04-02T00:21:26.082Z,0
2017-04-02T00:22:26.661Z,0
2017-04-02T00:23:26.640Z,0
2017-04-02T00:24:26.873Z,0
2017-04-02T00:25:26.548Z,0
2017-04-02T00:26:26.887Z,0
2017-04-02T00:27:26.851Z,0
2017-04-02T00:28:26.252Z,0
2017-04-02T00:29:26.241Z,0
2017-04-02T00:30:26.220Z,0
2017-04-02T00:31:26.551Z,0
2017-04-02T00:32:26.520Z,0
2017-04-02T00:33:26.619Z,0
2017-04-02T00:34:26.490Z,0
2017-04-02T00:35:26.506Z,0
2017-04-02T00:36:26.455Z,0
2017-04-02T00:37:26.466Z,0
2017-04-02T00:38:26.423Z,0
2017-04-02T00:39:26.664Z,0
2017-04-02T00:40:26.734Z,0
2017-04-02T00:41:26.648Z,0
2017-04-02T00:42:26.657Z,0
2017-04-02T00:43:26.456Z,0
2017-04-02T00:44:26.137Z,0
2017-04-02T00:45:26.338Z,0
2017-04-02T00:46:26.325Z,0
2017-04-02T00:47:26.240Z,0
2017-04-02T00:48:26.344Z,0
2017-04-02T00:49:25.960Z,0
2017-04-02T00:50:25.948Z,0
2017-04-02T00:51:26.435Z,0
2017-04-02T00:52:26.495Z,0
2017-04-02T00:53:26.482Z,0
2017-04-02T00:54:26.514Z,0
2017-04-02T00:55:26.529Z,0
2017-04-02T00:56:25.887Z,0
2017-04-02T00:57:25.809Z,0
2017-04-02T00:58:25.902Z,0
2017-04-02T00:59:25.834Z,0
2017-04-02T01:00:26.132Z,0
2017-04-02T01:01:26.116Z,0
2017-04-02T01:02:26.097Z,0
2017-04-02T01:03:26.087Z,0
2017-04-02T01:04:26.076Z,0
2017-04-02T01:05:26.073Z,0
2017-04-02T01:06:26.043Z,0
2017-04-02T01:07:26.031Z,0
2017-04-02T01:08:26.011Z,0
2017-04-02T01:09:26.001Z,0
2017-04-02T01:10:25.991Z,0
2017-04-02T01:11:25.981Z,0
2017-04-02T01:12:26.167Z,0
2017-04-02T01:13:26.012Z,0
2017-04-02T01:14:25.623Z,0
2017-04-02T01:15:25.596Z,0
2017-04-02T01:16:25.906Z,0
2017-04-02T01:17:25.920Z,0
2017-04-02T01:18:25.880Z,0
2017-04-02T01:19:25.982Z,0
2017-04-02T01:20:25.855Z,0
2017-04-02T01:21:26.211Z,0
2017-04-02T01:22:26.101Z,0
2017-04-02T01:23:25.839Z,0
2017-04-02T01:24:26.006Z,0
2017-04-02T01:25:26.057Z,0
2017-04-02T01:26:26.008Z,0
2017-04-02T01:27:25.811Z,0
2017-04-02T01:28:25.128Z,0
2017-04-02T01:29:25.756Z,0
2017-04-02T01:30:25.418Z,0
2017-04-02T01:31:25.716Z,0
2017-04-02T01:32:25.394Z,0
2017-04-02T01:33:25.368Z,0
2017-04-02T01:34:25.356Z,0
2017-04-02T01:35:25.660Z,0
2017-04-02T01:36:25.337Z,0
2017-04-02T01:37:25.655Z,0
2017-04-02T01:38:25.306Z,0
2017-04-02T01:39:25.315Z,0
2017-04-02T01:40:25.582Z,0
2017-04-02T01:41:25.622Z,0
2017-04-02T01:42:25.235Z,0
2017-04-02T01:43:25.230Z,0
2017-04-02T01:44:25.659Z,0
2017-04-02T01:45:25.505Z,0
2017-04-02T01:46:25.499Z,0
2017-04-02T01:47:25.168Z,0
2017-04-02T01:48:25.156Z,0
2017-04-02T01:49:25.450Z,0
2017-04-02T01:50:25.495Z,0
2017-04-02T01:51:25.121Z,0
2017-04-02T01:52:25.106Z,0
2017-04-02T01:53:25.405Z,0
2017-04-02T01:54:25.074Z,0
2017-04-02T01:55:25.160Z,0
2017-04-02T01:56:25.831Z,0
2017-04-02T01:57:25.383Z,0
2017-04-02T01:58:25.330Z,0
2017-04-02T01:59:25.319Z,0
2017-04-02T02:00:25.306Z,0
2017-04-02T02:01:25.298Z,0
2017-04-02T02:02:25.288Z,0
2017-04-02T02:03:24.945Z,0
2017-04-02T02:04:24.934Z,0
2017-04-02T02:05:25.322Z,0
2017-04-02T02:06:25.219Z,0
2017-04-02T02:07:25.356Z,0
2017-04-02T02:08:25.189Z,0
2017-04-02T02:09:24.871Z,0
2017-04-02T02:10:25.487Z,0
2017-04-02T02:11:25.801Z,0
2017-04-02T02:12:24.957Z,0
2017-04-02T02:13:25.116Z,0
2017-04-02T02:14:24.819Z,0
2017-04-02T02:15:25.088Z,0
2017-04-02T02:16:25.084Z,0
2017-04-02T02:17:25.054Z,0
2017-04-02T02:18:24.740Z,0
2017-04-02T02:19:25.033Z,0
2017-04-02T02:20:25.018Z,0
2017-04-02T02:21:25.002Z,0
2017-04-02T02:22:24.678Z,0
2017-04-02T02:23:24.665Z,0
2017-04-02T02:24:24.998Z,0
2017-04-02T02:25:25.281Z,0
2017-04-02T02:26:25.030Z,0
2017-04-02T02:27:25.304Z,0
2017-04-02T02:28:24.595Z,0
2017-04-02T02:29:24.632Z,0
2017-04-02T02:30:24.573Z,0
2017-04-02T02:31:25.105Z,0
2017-04-02T02:32:25.114Z,0
2017-04-02T02:33:24.524Z,0
2017-04-02T02:34:24.957Z,0
2017-04-02T02:35:24.811Z,0
2017-04-02T02:36:24.830Z,0
2017-04-02T02:37:24.804Z,0
2017-04-02T02:38:24.791Z,0
2017-04-02T02:39:24.469Z,0
2017-04-02T02:40:25.140Z,0
2017-04-02T02:41:25.094Z,0
2017-04-02T02:42:25.129Z,0
2017-04-02T02:43:24.797Z,0
2017-04-02T02:44:24.372Z,0
2017-04-02T02:45:24.056Z,0
2017-04-02T02:46:24.356Z,0
2017-04-02T02:47:24.343Z,0
2017-04-02T02:48:24.630Z,0
2017-04-02T02:49:24.619Z,0
2017-04-02T02:50:24.607Z,0
2017-04-02T02:51:24.388Z,0
2017-04-02T02:52:24.580Z,0
2017-04-02T02:53:24.559Z,0
2017-04-02T02:54:24.545Z,0
2017-04-02T02:55:24.387Z,0
2017-04-02T02:56:24.079Z,0
2017-04-02T02:57:24.788Z,0
2017-04-02T02:58:24.486Z,0
2017-04-02T02:59:24.636Z,0
2017-04-02T03:00:24.496Z,0
2017-04-02T03:01:24.447Z,0
2017-04-02T03:02:24.124Z,0
2017-04-02T03:03:24.467Z,0
2017-04-02T03:04:24.465Z,0
2017-04-02T03:05:24.397Z,0
2017-04-02T03:06:24.298Z,0
2017-04-02T03:07:24.644Z,0
2017-04-02T03:08:24.323Z,0
2017-04-02T03:09:24.703Z,0
2017-04-02T03:10:24.549Z,0
2017-04-02T03:11:24.484Z,0
2017-04-02T03:12:24.527Z,0
2017-04-02T03:13:24.297Z,0
2017-04-02T03:14:24.266Z,0
2017-04-02T03:15:24.263Z,0
2017-04-02T03:16:24.249Z,0
2017-04-02T03:17:23.922Z,0
2017-04-02T03:18:23.901Z,0
2017-04-02T03:19:24.196Z,0
2017-04-02T03:20:24.185Z,0
2017-04-02T03:21:24.181Z,0
2017-04-02T03:22:23.865Z,0
2017-04-02T03:23:24.145Z,0
2017-04-02T03:24:23.942Z,0
2017-04-02T03:25:24.218Z,0
2017-04-02T03:26:24.025Z,0
2017-04-02T03:27:24.250Z,0
2017-04-02T03:28:24.099Z,0
2017-04-02T03:29:24.071Z,0
2017-04-02T03:30:23.734Z,0
2017-04-02T03:31:24.042Z,0
2017-04-02T03:32:24.037Z,0
2017-04-02T03:33:23.735Z,0
2017-04-02T03:34:23.992Z,0
2017-04-02T03:35:23.972Z,0
2017-04-02T03:36:23.963Z,0
2017-04-02T03:37:23.630Z,0
2017-04-02T03:38:24.070Z,0
2017-04-02T03:39:23.921Z,0
2017-04-02T03:40:23.594Z,0
2017-04-02T03:41:24.143Z,0
2017-04-02T03:42:23.847Z,0
2017-04-02T03:43:23.862Z,0
2017-04-02T03:44:23.848Z,0
2017-04-02T03:45:23.839Z,0
2017-04-02T03:46:23.517Z,0
2017-04-02T03:47:23.820Z,0
2017-04-02T03:48:23.800Z,0
2017-04-02T03:49:23.640Z,0
2017-04-02T03:50:23.467Z,0
2017-04-02T03:51:23.450Z,0
2017-04-02T03:52:23.740Z,0
2017-04-02T03:53:23.536Z,0
2017-04-02T03:54:23.875Z,0
2017-04-02T03:55:23.911Z,0
2017-04-02T03:56:23.742Z,0
2017-04-02T03:57:23.851Z,0
2017-04-02T03:58:23.664Z,0
2017-04-02T03:59:23.339Z,0
2017-04-02T04:00:23.641Z,0
2017-04-02T04:01:23.625Z,0
2017-04-02T04:02:23.635Z,0
2017-04-02T04:03:23.591Z,0
2017-04-02T04:04:22.951Z,0
2017-04-02T04:05:23.575Z,0
2017-04-02T04:06:23.553Z,0
2017-04-02T04:07:23.709Z,0
2017-04-02T04:08:23.530Z,0
2017-04-02T04:09:23.507Z,0
2017-04-02T04:10:23.728Z,0
2017-04-02T04:11:23.876Z,0
2017-04-02T04:12:23.855Z,0
2017-04-02T04:13:22.823Z,0
2017-04-02T04:14:23.303Z,0
2017-04-02T04:15:23.163Z,0
2017-04-02T04:16:23.139Z,0
2017-04-02T04:17:23.415Z,0
2017-04-02T04:18:23.081Z,0
2017-04-02T04:19:23.061Z,0
2017-04-02T04:20:23.042Z,0
2017-04-02T04:21:23.038Z,0
2017-04-02T04:22:22.693Z,0
2017-04-02T04:23:23.311Z,0
2017-04-02T04:24:23.283Z,0
2017-04-02T04:25:23.585Z,0
2017-04-02T04:26:23.035Z,0
2017-04-02T04:27:23.180Z,0
2017-04-02T04:28:23.234Z,0
2017-04-02T04:29:23.223Z,0
2017-04-02T04:30:22.931Z,0
2017-04-02T04:31:22.901Z,0
2017-04-02T04:32:23.189Z,0
2017-04-02T04:33:23.177Z,0
2017-04-02T04:34:22.847Z,0
2017-04-02T04:35:22.884Z,0
2017-04-02T04:36:23.324Z,0
2017-04-02T04:37:23.317Z,0
2017-04-02T04:38:22.976Z,0
2017-04-02T04:39:23.224Z,0
2017-04-02T04:40:23.301Z,0
2017-04-02T04:41:23.304Z,0
2017-04-02T04:42:23.224Z,0
2017-04-02T04:43:23.080Z,0
2017-04-02T04:44:23.408Z,0
2017-04-02T04:45:22.716Z,0
2017-04-02T04:46:22.995Z,0
2017-04-02T04:47:22.977Z,0
2017-04-02T04:48:22.962Z,0
2017-04-02T04:49:22.466Z,0
2017-04-02T04:50:23.136Z,0
2017-04-02T04:51:22.940Z,0
2017-04-02T04:52:22.920Z,0
2017-04-02T04:53:22.272Z,0
2017-04-02T04:54:22.891Z,0
2017-04-02T04:55:22.889Z,0
2017-04-02T04:56:23.039Z,0
2017-04-02T04:57:23.059Z,0
2017-04-02T04:58:22.510Z,0
2017-04-02T04:59:22.184Z,0
2017-04-02T05:00:23.313Z,0
2017-04-02T05:01:22.789Z,0
2017-04-02T05:02:22.897Z,0
2017-04-02T05:03:22.462Z,0
2017-04-02T05:04:22.854Z,5
2017-04-02T05:05:22.613Z,5
2017-04-02T05:06:22.447Z,5
2017-04-02T05:07:22.699Z,5
2017-04-02T05:08:22.740Z,5
2017-04-02T05:09:22.914Z,5
2017-04-02T05:10:22.749Z,5
2017-04-02T05:11:22.733Z,5
2017-04-02T05:12:23.114Z,5
2017-04-02T05:13:22.298Z,5
2017-04-02T05:14:22.593Z,10
2017-04-02T05:15:22.583Z,10
2017-04-02T05:16:22.260Z,10
2017-04-02T05:17:22.237Z,10
2017-04-02T05:18:22.221Z,10
2017-04-02T05:19:22.214Z,10
2017-04-02T05:20:22.199Z,10
2017-04-02T05:21:22.192Z,10
2017-04-02T05:22:22.476Z,15
2017-04-02T05:23:22.933Z,15
2017-04-02T05:24:22.695Z,15
2017-04-02T05:25:22.652Z,15
2017-04-02T05:26:22.903Z,15
2017-04-02T05:27:22.869Z,15
2017-04-02T05:28:22.399Z,15
2017-04-02T05:29:22.411Z,15
2017-04-02T05:30:22.371Z,15
2017-04-02T05:31:22.138Z,15
2017-04-02T05:32:22.042Z,15
2017-04-02T05:33:22.022Z,20
2017-04-02T05:34:22.348Z,20
2017-04-02T05:35:21.994Z,20
2017-04-02T05:36:22.650Z,20
2017-04-02T05:37:22.412Z,20
2017-04-02T05:38:22.466Z,20
2017-04-02T05:39:22.502Z,25
2017-04-02T05:40:22.407Z,25
2017-04-02T05:41:22.428Z,25
2017-04-02T05:42:22.333Z,30
2017-04-02T05:43:22.183Z,30
2017-04-02T05:44:22.172Z,30
2017-04-02T05:45:21.849Z,35
2017-04-02T05:46:22.143Z,35
2017-04-02T05:47:21.848Z,35
2017-04-02T05:48:22.114Z,35
2017-04-02T05:49:21.789Z,40
2017-04-02T05:50:22.235Z,40
2017-04-02T05:51:22.083Z,40
2017-04-02T05:52:21.607Z,40
2017-04-02T05:53:21.760Z,40
2017-04-02T05:54:22.045Z,35
2017-04-02T05:55:22.095Z,35
2017-04-02T05:56:22.493Z,35
2017-04-02T05:57:21.977Z,35
2017-04-02T05:58:21.673Z,35
2017-04-02T05:59:21.649Z,30
2017-04-02T06:00:21.967Z,30
2017-04-02T06:01:21.960Z,35
2017-04-02T06:02:21.935Z,35
2017-04-02T06:03:21.728Z,30
2017-04-02T06:04:21.579Z,35
2017-04-02T06:05:21.250Z,35
2017-04-02T06:06:21.617Z,35
2017-04-02T06:07:21.871Z,40
2017-04-02T06:08:21.861Z,45
2017-04-02T06:09:22.361Z,45
2017-04-02T06:10:22.449Z,50
2017-04-02T06:11:22.429Z,50
2017-04-02T06:12:22.379Z,55
2017-04-02T06:13:21.471Z,55
2017-04-02T06:14:21.454Z,55
2017-04-02T06:15:21.741Z,55
2017-04-02T06:16:21.725Z,60
2017-04-02T06:17:21.883Z,60
2017-04-02T06:18:21.094Z,65
2017-04-02T06:19:21.917Z,70
2017-04-02T06:20:21.054Z,70
2017-04-02T06:21:21.961Z,70
2017-04-02T06:22:22.087Z,70
2017-04-02T06:23:22.163Z,70
2017-04-02T06:24:22.262Z,70
2017-04-02T06:25:22.411Z,75
2017-04-02T06:26:22.820Z,75
2017-04-02T06:27:22.520Z,80
2017-04-02T06:28:21.298Z,80
2017-04-02T06:29:20.931Z,80
2017-04-02T06:30:21.230Z,90
2017-04-02T06:31:21.579Z,85
2017-04-02T06:32:21.684Z,90
2017-04-02T06:33:21.223Z,95
2017-04-02T06:34:21.679Z,100
2017-04-02T06:35:21.484Z,100
2017-04-02T06:36:21.465Z,100
2017-04-02T06:37:21.449Z,105
2017-04-02T06:38:21.137Z,105
2017-04-02T06:39:21.454Z,105
2017-04-02T06:40:21.386Z,110
2017-04-02T06:41:21.079Z,110
2017-04-02T06:42:22.267Z,110
2017-04-02T06:43:21.047Z,105
2017-04-02T06:44:21.434Z,110
2017-04-02T06:45:21.328Z,110
2017-04-02T06:46:21.539Z,115
2017-04-02T06:47:21.304Z,120
2017-04-02T06:48:21.285Z,125
2017-04-02T06:49:21.271Z,120
2017-04-02T06:50:20.642Z,115
2017-04-02T06:51:21.250Z,115
2017-04-02T06:52:20.939Z,120
2017-04-02T06:53:20.924Z,120
2017-04-02T06:54:20.916Z,135
2017-04-02T06:55:20.582Z,135
2017-04-02T06:56:22.511Z,145
2017-04-02T06:57:21.619Z,155
2017-04-02T06:58:20.552Z,150
2017-04-02T06:59:21.149Z,160
2017-04-02T07:00:20.514Z,180
2017-04-02T07:01:21.395Z,180
2017-04-02T07:02:20.165Z,175
2017-04-02T07:03:20.991Z,170
2017-04-02T07:04:20.456Z,165
2017-04-02T07:05:21.326Z,180
2017-04-02T07:06:21.079Z,175
2017-04-02T07:07:21.897Z,175
2017-04-02T07:08:20.713Z,175
2017-04-02T07:09:22.668Z,175
2017-04-02T07:10:22.224Z,175
2017-04-02T07:11:22.369Z,175
2017-04-02T07:12:22.343Z,175
2017-04-02T07:13:20.960Z,175
2017-04-02T07:14:20.947Z,175
2017-04-02T07:15:20.931Z,170
2017-04-02T07:16:20.925Z,160
2017-04-02T07:17:20.905Z,155
2017-04-02T07:18:20.892Z,150
2017-04-02T07:19:20.935Z,155
2017-04-02T07:20:20.871Z,160
2017-04-02T07:21:20.869Z,165
2017-04-02T07:22:20.845Z,170
2017-04-02T07:23:20.220Z,170
2017-04-02T07:24:20.517Z,160
2017-04-02T07:25:20.926Z,155
2017-04-02T07:26:21.321Z,160
2017-04-02T07:27:20.923Z,170
2017-04-02T07:28:20.772Z,180
2017-04-02T07:29:20.455Z,175
2017-04-02T07:30:21.085Z,160
2017-04-02T07:31:20.733Z,150
2017-04-02T07:32:20.989Z,145
2017-04-02T07:33:20.707Z,150
2017-04-02T07:34:20.566Z,165
2017-04-02T07:35:20.678Z,170
2017-04-02T07:36:20.662Z,175
2017-04-02T07:37:20.852Z,180
2017-04-02T07:38:20.646Z,185
2017-04-02T07:39:20.635Z,180
2017-04-02T07:40:20.001Z,170
2017-04-02T07:41:20.725Z,180
2017-04-02T07:42:21.127Z,175
2017-04-02T07:43:19.637Z,155
2017-04-02T07:44:20.559Z,175
2017-04-02T07:45:19.929Z,175
2017-04-02T07:46:20.539Z,190
2017-04-02T07:47:20.521Z,190
2017-04-02T07:48:20.199Z,195
2017-04-02T07:49:20.191Z,205
2017-04-02T07:50:20.488Z,215
2017-04-02T07:51:20.172Z,225
2017-04-02T07:52:20.515Z,225
2017-04-02T07:53:20.787Z,225
2017-04-02T07:54:20.801Z,230
2017-04-02T07:55:20.809Z,230
2017-04-02T07:56:21.039Z,230
2017-04-02T07:57:21.374Z,230
2017-04-02T07:58:20.431Z,235
2017-04-02T07:59:20.549Z,235
2017-04-02T08:00:20.366Z,240
2017-04-02T08:01:20.047Z,245
2017-04-02T08:02:20.332Z,255
2017-04-02T08:03:19.745Z,250
2017-04-02T08:04:20.025Z,260
2017-04-02T08:05:20.295Z,260
2017-04-02T08:06:19.977Z,260
2017-04-02T08:07:20.279Z,260
2017-04-02T08:08:20.527Z,255
2017-04-02T08:09:21.416Z,260
2017-04-02T08:10:21.508Z,260
2017-04-02T08:11:21.520Z,260
2017-04-02T08:12:20.834Z,265
2017-04-02T08:13:19.893Z,265
2017-04-02T08:14:20.191Z,270
2017-04-02T08:15:19.868Z,280
2017-04-02T08:16:19.217Z,510
2017-04-02T08:17:20.161Z,765
2017-04-02T08:18:19.510Z,765
2017-04-02T08:19:20.134Z,635
2017-04-02T08:20:19.805Z,765
2017-04-02T08:21:20.113Z,740
2017-04-02T08:22:19.853Z,755
2017-04-02T08:23:19.773Z,740
2017-04-02T08:24:20.082Z,785
2017-04-02T08:25:20.066Z,845
2017-04-02T08:26:20.060Z,975
2017-04-02T08:27:20.064Z,1060
2017-04-02T08:28:19.726Z,1060
2017-04-02T08:29:19.725Z,1030
2017-04-02T08:30:20.024Z,955
2017-04-02T08:31:19.099Z,950
2017-04-02T08:32:20.007Z,915
2017-04-02T08:33:19.692Z,885
2017-04-02T08:34:19.995Z,825
2017-04-02T08:35:19.982Z,745
2017-04-02T08:36:19.358Z,765
2017-04-02T08:37:19.352Z,830
2017-04-02T08:38:19.696Z,615
2017-04-02T08:39:19.336Z,505
2017-04-02T08:40:19.951Z,400
2017-04-02T08:41:19.961Z,390
2017-04-02T08:42:19.952Z,545
2017-04-02T08:43:19.944Z,740
2017-04-02T08:44:20.145Z,875
2017-04-02T08:45:19.917Z,780
2017-04-02T08:46:19.917Z,715
2017-04-02T08:47:19.600Z,745
2017-04-02T08:48:19.920Z,555
2017-04-02T08:49:19.900Z,510
2017-04-02T08:50:19.889Z,490
2017-04-02T08:51:19.571Z,460
2017-04-02T08:52:19.895Z,505
2017-04-02T08:53:19.568Z,515
2017-04-02T08:54:19.873Z,670
2017-04-02T08:55:19.562Z,735
2017-04-02T08:56:19.858Z,575
2017-04-02T08:57:19.855Z,685
2017-04-02T08:58:19.533Z,670
2017-04-02T08:59:19.850Z,665
2017-04-02T09:00:19.580Z,580
2017-04-02T09:01:19.889Z,330
2017-04-02T09:02:19.823Z,725
2017-04-02T09:03:19.821Z,390
2017-04-02T09:04:19.195Z,545
2017-04-02T09:05:19.834Z,405
2017-04-02T09:06:19.804Z,445
2017-04-02T09:07:19.802Z,340
2017-04-02T09:08:19.483Z,330
2017-04-02T09:09:19.794Z,370
2017-04-02T09:10:19.469Z,445
2017-04-02T09:11:19.478Z,850
2017-04-02T09:12:19.792Z,790
2017-04-02T09:13:19.802Z,695
2017-04-02T09:14:19.484Z,860
2017-04-02T09:15:19.473Z,795
2017-04-02T09:16:19.125Z,280
2017-04-02T09:17:19.789Z,240
2017-04-02T09:18:19.108Z,220
2017-04-02T09:19:19.428Z,195
2017-04-02T09:20:19.747Z,190
2017-04-02T09:21:19.747Z,200
2017-04-02T09:22:19.097Z,230
2017-04-02T09:23:19.731Z,250
2017-04-02T09:24:19.392Z,470
2017-04-02T09:25:19.380Z,285
2017-04-02T09:26:19.691Z,265
2017-04-02T09:27:19.669Z,285
2017-04-02T09:28:19.666Z,515
2017-04-02T09:29:19.390Z,570
2017-04-02T09:30:19.650Z,315
2017-04-02T09:31:19.643Z,475
2017-04-02T09:32:19.642Z,740
2017-04-02T09:33:19.652Z,865
2017-04-02T09:34:19.316Z,1020
2017-04-02T09:35:19.617Z,935
2017-04-02T09:36:19.340Z,830
2017-04-02T09:37:19.295Z,675
2017-04-02T09:38:19.643Z,620
2017-04-02T09:39:19.276Z,840
2017-04-02T09:40:19.281Z,755
2017-04-02T09:41:19.262Z,620
2017-04-02T09:42:18.953Z,450
2017-04-02T09:43:18.960Z,570
2017-04-02T09:44:19.246Z,925
2017-04-02T09:45:19.248Z,790
2017-04-02T09:46:19.555Z,420
2017-04-02T09:47:19.546Z,435
2017-04-02T09:48:19.276Z,645
2017-04-02T09:49:19.573Z,690
2017-04-02T09:50:19.539Z,855
2017-04-02T09:51:18.898Z,865
2017-04-02T09:52:19.203Z,615
2017-04-02T09:53:19.554Z,440
2017-04-02T09:54:19.494Z,475
2017-04-02T09:55:19.186Z,635
2017-04-02T09:56:19.176Z,745
2017-04-02T09:57:19.193Z,650
2017-04-02T09:58:19.476Z,690
2017-04-02T09:59:19.474Z,815
2017-04-02T10:00:19.152Z,715
2017-04-02T10:01:19.160Z,815
2017-04-02T10:02:19.153Z,980
2017-04-02T10:03:19.130Z,755
2017-04-02T10:04:19.124Z,565
2017-04-02T10:05:19.125Z,335
2017-04-02T10:06:19.431Z,305
2017-04-02T10:07:18.812Z,290
2017-04-02T10:08:19.109Z,1105
2017-04-02T10:09:19.429Z,285
2017-04-02T10:10:18.786Z,280
2017-04-02T10:11:18.789Z,290
2017-04-02T10:12:19.096Z,365
2017-04-02T10:13:19.090Z,1055
2017-04-02T10:14:19.077Z,670
2017-04-02T10:15:19.394Z,715
2017-04-02T10:16:18.751Z,815
2017-04-02T10:17:19.065Z,735
2017-04-02T10:18:19.064Z,975
2017-04-02T10:19:19.060Z,1150
2017-04-02T10:20:18.738Z,1170
2017-04-02T10:21:19.405Z,935
2017-04-02T10:22:19.039Z,450
2017-04-02T10:23:19.340Z,585
2017-04-02T10:24:18.713Z,1005
2017-04-02T10:25:19.017Z,860
2017-04-02T10:26:19.328Z,855
2017-04-02T10:27:19.101Z,765
2017-04-02T10:28:19.031Z,770
2017-04-02T10:29:19.312Z,705
2017-04-02T10:30:19.002Z,870
2017-04-02T10:31:19.316Z,955
2017-04-02T10:32:18.668Z,810
2017-04-02T10:33:19.291Z,840
2017-04-02T10:34:19.293Z,890
2017-04-02T10:35:19.281Z,835
2017-04-02T10:36:18.971Z,555
2017-04-02T10:37:19.331Z,890
2017-04-02T10:38:19.519Z,825
2017-04-02T10:39:19.319Z,785
2017-04-02T10:40:18.653Z,410
2017-04-02T10:41:18.633Z,360
2017-04-02T10:42:18.940Z,385
2017-04-02T10:43:18.952Z,775
2017-04-02T10:44:19.445Z,1185
2017-04-02T10:45:19.338Z,1140
2017-04-02T10:46:19.227Z,1015
2017-04-02T10:47:18.604Z,410
2017-04-02T10:48:19.226Z,610
2017-04-02T10:49:19.215Z,1360
2017-04-02T10:50:19.212Z,1100
2017-04-02T10:51:19.209Z,945
2017-04-02T10:52:19.208Z,1100
2017-04-02T10:53:18.576Z,1170
2017-04-02T10:54:19.200Z,1100
2017-04-02T10:55:19.191Z,1255
2017-04-02T10:56:19.182Z,1275
2017-04-02T10:57:19.186Z,1265
2017-04-02T10:58:19.385Z,1395
2017-04-02T10:59:19.179Z,1240
2017-04-02T11:00:19.181Z,1400
2017-04-02T11:01:19.171Z,1615
2017-04-02T11:02:19.191Z,1255
2017-04-02T11:03:19.188Z,1560
2017-04-02T11:04:19.152Z,405
2017-04-02T11:05:19.155Z,415
2017-04-02T11:06:18.844Z,465
2017-04-02T11:07:18.851Z,500
2017-04-02T11:08:19.168Z,495
2017-04-02T11:09:19.166Z,505
2017-04-02T11:10:18.830Z,525
2017-04-02T11:11:18.826Z,475
2017-04-02T11:12:19.133Z,880
2017-04-02T11:13:19.248Z,1725
2017-04-02T11:14:19.129Z,990
2017-04-02T11:15:19.122Z,350
2017-04-02T11:16:18.810Z,240
2017-04-02T11:17:18.861Z,230
2017-04-02T11:18:18.814Z,230
2017-04-02T11:19:18.812Z,245
2017-04-02T11:20:19.131Z,280
2017-04-02T11:21:18.793Z,280
2017-04-02T11:22:18.783Z,275
2017-04-02T11:23:18.832Z,290
2017-04-02T11:24:19.096Z,340
2017-04-02T11:25:19.097Z,365
2017-04-02T11:26:18.763Z,320
2017-04-02T11:27:18.764Z,380
2017-04-02T11:28:18.954Z,1545
2017-04-02T11:29:18.746Z,1605
2017-04-02T11:30:18.446Z,1575
2017-04-02T11:31:18.735Z,1630
2017-04-02T11:32:19.059Z,290
2017-04-02T11:33:19.050Z,280
2017-04-02T11:34:18.728Z,260
2017-04-02T11:35:19.038Z,295
2017-04-02T11:36:19.134Z,1550
2017-04-02T11:37:19.069Z,1690
2017-04-02T11:38:18.393Z,1670
2017-04-02T11:39:19.018Z,1665
2017-04-02T11:40:19.011Z,280
2017-04-02T11:41:19.008Z,340
2017-04-02T11:42:19.001Z,335
2017-04-02T11:43:19.001Z,680
2017-04-02T11:44:18.725Z,1900
2017-04-02T11:45:18.681Z,1900
2017-04-02T11:46:18.995Z,1960
2017-04-02T11:47:18.983Z,2005
2017-04-02T11:48:19.014Z,2030
2017-04-02T11:49:18.994Z,1970
2017-04-02T11:50:18.982Z,1950
2017-04-02T11:51:18.971Z,1930
2017-04-02T11:52:18.987Z,1965
2017-04-02T11:53:18.973Z,1980
2017-04-02T11:54:19.015Z,1985
2017-04-02T11:55:18.967Z,1830
2017-04-02T11:56:19.172Z,1890
2017-04-02T11:57:18.654Z,1970
2017-04-02T11:58:18.960Z,1920
2017-04-02T11:59:18.336Z,1905
2017-04-02T12:00:18.978Z,1875
2017-04-02T12:01:18.649Z,1810
2017-04-02T12:02:18.964Z,1800
2017-04-02T12:03:18.966Z,510
2017-04-02T12:04:18.652Z,410
2017-04-02T12:05:18.655Z,325
2017-04-02T12:06:18.667Z,370
2017-04-02T12:07:18.663Z,1900
2017-04-02T12:08:18.656Z,1905
2017-04-02T12:09:18.664Z,1940
2017-04-02T12:10:18.968Z,1980
2017-04-02T12:11:18.709Z,2055
2017-04-02T12:12:18.666Z,2060
2017-04-02T12:13:18.691Z,1960
2017-04-02T12:14:18.353Z,1935
2017-04-02T12:15:18.985Z,1965
2017-04-02T12:16:18.426Z,1955
2017-04-02T12:17:18.678Z,2040
2017-04-02T12:18:18.696Z,2025
2017-04-02T12:19:18.371Z,2000
2017-04-02T12:20:18.685Z,1975
2017-04-02T12:21:18.686Z,1940
2017-04-02T12:22:18.682Z,1865
2017-04-02T12:23:18.675Z,1195
2017-04-02T12:24:18.443Z,1565
2017-04-02T12:25:18.768Z,380
2017-04-02T12:26:18.371Z,310
2017-04-02T12:27:18.677Z,300
2017-04-02T12:28:19.022Z,310
2017-04-02T12:29:18.688Z,325
2017-04-02T12:30:19.035Z,340
2017-04-02T12:31:18.991Z,405
2017-04-02T12:32:18.677Z,1650
2017-04-02T12:33:19.153Z,485
2017-04-02T12:34:18.683Z,505
2017-04-02T12:35:19.054Z,1810
2017-04-02T12:36:19.098Z,1785
2017-04-02T12:37:18.986Z,1780
2017-04-02T12:38:19.002Z,1765
2017-04-02T12:39:18.681Z,1755
2017-04-02T12:40:18.057Z,1800
2017-04-02T12:41:18.688Z,1795
2017-04-02T12:42:18.363Z,1780
2017-04-02T12:43:18.677Z,1800
2017-04-02T12:44:18.613Z,1865
2017-04-02T12:45:18.675Z,1860
2017-04-02T12:46:18.376Z,1815
2017-04-02T12:47:18.750Z,475
2017-04-02T12:48:18.761Z,770
2017-04-02T12:49:18.727Z,1605
2017-04-02T12:50:18.683Z,1715
2017-04-02T12:51:18.999Z,1680
2017-04-02T12:52:18.685Z,1730
2017-04-02T12:53:18.676Z,1700
2017-04-02T12:54:18.703Z,1685
2017-04-02T12:55:18.997Z,1725
2017-04-02T12:56:18.702Z,1750
2017-04-02T12:57:18.377Z,1740
2017-04-02T12:58:18.691Z,1705
2017-04-02T12:59:18.791Z,1680
2017-04-02T13:00:18.377Z,1670
2017-04-02T13:01:18.693Z,1750
2017-04-02T13:02:18.395Z,1815
2017-04-02T13:03:18.743Z,1785
2017-04-02T13:04:18.435Z,590
2017-04-02T13:05:18.696Z,350
2017-04-02T13:06:18.704Z,330
2017-04-02T13:07:18.421Z,1655
2017-04-02T13:08:18.709Z,1660
2017-04-02T13:09:21.795Z,1645
2017-04-02T13:10:18.720Z,1660
2017-04-02T13:11:18.764Z,1610
2017-04-02T13:12:19.026Z,1595
2017-04-02T13:13:18.713Z,1600
2017-04-02T13:14:18.705Z,1625
2017-04-02T13:15:18.392Z,1690
2017-04-02T13:16:18.397Z,1660
2017-04-02T13:17:18.452Z,1690
2017-04-02T13:18:18.712Z,1595
2017-04-02T13:19:18.459Z,1570
2017-04-02T13:20:18.413Z,1515
2017-04-02T13:21:18.412Z,1585
2017-04-02T13:22:18.720Z,1605
2017-04-02T13:23:18.722Z,1640
2017-04-02T13:24:18.721Z,1650
2017-04-02T13:25:18.410Z,1650
2017-04-02T13:26:19.042Z,1635
2017-04-02T13:27:18.732Z,1575
2017-04-02T13:28:18.469Z,1540
2017-04-02T13:29:18.412Z,1560
2017-04-02T13:30:18.723Z,1560
2017-04-02T13:31:18.107Z,1515
2017-04-02T13:32:18.415Z,1480
2017-04-02T13:33:18.731Z,1460
2017-04-02T13:34:19.035Z,1440
2017-04-02T13:35:18.105Z,1475
2017-04-02T13:36:18.742Z,1520
2017-04-02T13:37:18.737Z,1410
2017-04-02T13:38:18.733Z,1445
2017-04-02T13:39:18.766Z,1435
2017-04-02T13:40:18.790Z,1420
2017-04-02T13:41:18.742Z,1360
2017-04-02T13:42:18.745Z,1395
2017-04-02T13:43:18.752Z,1345
2017-04-02T13:44:19.067Z,1440
2017-04-02T13:45:18.748Z,1415
2017-04-02T13:46:19.069Z,1385
2017-04-02T13:47:18.754Z,1325
2017-04-02T13:48:19.073Z,1280
2017-04-02T13:49:19.092Z,1300
2017-04-02T13:50:18.761Z,1350
2017-04-02T13:51:18.785Z,1385
2017-04-02T13:52:18.764Z,1425
2017-04-02T13:53:19.086Z,1435
2017-04-02T13:54:18.796Z,1440
2017-04-02T13:55:19.114Z,1520
2017-04-02T13:56:19.115Z,1580
2017-04-02T13:57:19.309Z,1610
2017-04-02T13:58:18.777Z,1615
2017-04-02T13:59:19.106Z,1590
2017-04-02T14:00:18.159Z,1510
2017-04-02T14:01:18.796Z,1470
2017-04-02T14:02:19.163Z,1435
2017-04-02T14:03:19.165Z,1475
2017-04-02T14:04:19.106Z,1355